sensor_id;sensor_type;location;lat;lon;timestamp;temperature;humidity
49184;DHT22;35021;49.214;12.270;2022-09-02T00:01:30;22.00;49.40
49184;DHT22;35021;49.214;12.270;2022-09-02T00:04:04;22.00;49.40
49184;DHT22;35021;49.214;12.270;2022-09-02T00:06:32;22.00;49.40
49184;DHT22;35021;49.214;12.270;2022-09-02T00:09:00;22.00;49.50
49184;DHT22;35021;49.214;12.270;2022-09-02T00:11:30;22.00;49.50
49184;DHT22;35021;49.214;12.270;2022-09-02T00:13:59;22.00;49.50
49184;DHT22;35021;49.214;12.270;2022-09-02T00:16:28;22.00;49.40
49184;DHT22;35021;49.214;12.270;2022-09-02T00:18:58;22.00;49.30
49184;DHT22;35021;49.214;12.270;2022-09-02T00:21:26;22.00;49.20
49184;DHT22;35021;49.214;12.270;2022-09-02T00:23:53;22.00;49.10
49184;DHT22;35021;49.214;12.270;2022-09-02T00:26:20;22.00;49.00
49184;DHT22;35021;49.214;12.270;2022-09-02T00:28:48;22.00;49.00
49184;DHT22;35021;49.214;12.270;2022-09-02T00:31:22;22.00;48.90
49184;DHT22;35021;49.214;12.270;2022-09-02T00:33:50;22.00;48.90
49184;DHT22;35021;49.214;12.270;2022-09-02T00:36:17;22.00;48.80
49184;DHT22;35021;49.214;12.270;2022-09-02T00:38:44;22.00;48.80
49184;DHT22;35021;49.214;12.270;2022-09-02T00:41:12;22.00;48.80
49184;DHT22;35021;49.214;12.270;2022-09-02T00:43:55;22.00;48.70
49184;DHT22;35021;49.214;12.270;2022-09-02T00:46:25;22.00;48.70
49184;DHT22;35021;49.214;12.270;2022-09-02T00:51:33;22.00;48.60
49184;DHT22;35021;49.214;12.270;2022-09-02T00:54:03;22.00;48.50
49184;DHT22;35021;49.214;12.270;2022-09-02T00:56:32;22.00;48.50
49184;DHT22;35021;49.214;12.270;2022-09-02T00:59:01;22.00;48.40
49184;DHT22;35021;49.214;12.270;2022-09-02T01:01:28;22.00;48.30
49184;DHT22;35021;49.214;12.270;2022-09-02T01:03:55;22.00;48.40
49184;DHT22;35021;49.214;12.270;2022-09-02T01:06:24;22.00;48.30
49184;DHT22;35021;49.214;12.270;2022-09-02T01:08:59;22.00;48.20
49184;DHT22;35021;49.214;12.270;2022-09-02T01:11:41;22.00;48.20
49184;DHT22;35021;49.214;12.270;2022-09-02T01:14:08;22.00;48.20
49184;DHT22;35021;49.214;12.270;2022-09-02T01:16:46;22.00;48.20
49184;DHT22;35021;49.214;12.270;2022-09-02T01:19:20;21.90;48.20
49184;DHT22;35021;49.214;12.270;2022-09-02T01:21:54;21.90;48.10
49184;DHT22;35021;49.214;12.270;2022-09-02T01:24:24;21.90;48.20
49184;DHT22;35021;49.214;12.270;2022-09-02T01:26:54;21.90;48.10
49184;DHT22;35021;49.214;12.270;2022-09-02T01:29:22;21.90;48.10
49184;DHT22;35021;49.214;12.270;2022-09-02T01:31:49;21.90;48.10
49184;DHT22;35021;49.214;12.270;2022-09-02T01:34:17;21.90;48.00
49184;DHT22;35021;49.214;12.270;2022-09-02T01:36:44;21.80;48.00
49184;DHT22;35021;49.214;12.270;2022-09-02T01:39:12;21.90;48.00
49184;DHT22;35021;49.214;12.270;2022-09-02T01:41:39;21.80;47.90
49184;DHT22;35021;49.214;12.270;2022-09-02T01:44:06;21.90;48.00
49184;DHT22;35021;49.214;12.270;2022-09-02T01:46:34;21.80;47.90
49184;DHT22;35021;49.214;12.270;2022-09-02T01:49:02;21.80;47.90
49184;DHT22;35021;49.214;12.270;2022-09-02T01:51:29;21.90;47.90
49184;DHT22;35021;49.214;12.270;2022-09-02T01:53:56;21.80;47.80
49184;DHT22;35021;49.214;12.270;2022-09-02T01:56:23;21.80;47.70
49184;DHT22;35021;49.214;12.270;2022-09-02T01:58:50;21.80;47.80
49184;DHT22;35021;49.214;12.270;2022-09-02T02:01:18;21.80;47.70
49184;DHT22;35021;49.214;12.270;2022-09-02T02:03:45;21.80;47.70
49184;DHT22;35021;49.214;12.270;2022-09-02T02:06:15;21.80;47.70
49184;DHT22;35021;49.214;12.270;2022-09-02T02:08:43;21.80;47.60
49184;DHT22;35021;49.214;12.270;2022-09-02T02:11:10;21.80;47.50
49184;DHT22;35021;49.214;12.270;2022-09-02T02:13:37;21.80;47.40
49184;DHT22;35021;49.214;12.270;2022-09-02T02:16:05;21.80;47.30
49184;DHT22;35021;49.214;12.270;2022-09-02T02:18:32;21.80;47.20
49184;DHT22;35021;49.214;12.270;2022-09-02T02:20:59;21.80;47.20
49184;DHT22;35021;49.214;12.270;2022-09-02T02:23:26;21.80;47.20
49184;DHT22;35021;49.214;12.270;2022-09-02T02:25:53;21.80;47.10
49184;DHT22;35021;49.214;12.270;2022-09-02T02:28:20;21.80;47.10
49184;DHT22;35021;49.214;12.270;2022-09-02T02:30:47;21.80;47.00
49184;DHT22;35021;49.214;12.270;2022-09-02T02:33:14;21.80;47.00
49184;DHT22;35021;49.214;12.270;2022-09-02T02:35:41;21.80;47.00
49184;DHT22;35021;49.214;12.270;2022-09-02T02:38:08;21.80;47.00
49184;DHT22;35021;49.214;12.270;2022-09-02T02:40:41;21.80;47.00
49184;DHT22;35021;49.214;12.270;2022-09-02T02:43:08;21.80;46.90
49184;DHT22;35021;49.214;12.270;2022-09-02T02:45:34;21.80;46.90
49184;DHT22;35021;49.214;12.270;2022-09-02T02:48:02;21.80;46.80
49184;DHT22;35021;49.214;12.270;2022-09-02T02:50:29;21.80;46.80
49184;DHT22;35021;49.214;12.270;2022-09-02T02:52:56;21.80;46.80
49184;DHT22;35021;49.214;12.270;2022-09-02T02:55:23;21.80;46.70
49184;DHT22;35021;49.214;12.270;2022-09-02T02:57:51;21.80;46.70
49184;DHT22;35021;49.214;12.270;2022-09-02T03:00:24;21.80;46.60
49184;DHT22;35021;49.214;12.270;2022-09-02T03:02:55;21.80;46.60
49184;DHT22;35021;49.214;12.270;2022-09-02T03:05:24;21.90;46.60
49184;DHT22;35021;49.214;12.270;2022-09-02T03:07:50;21.80;46.60
49184;DHT22;35021;49.214;12.270;2022-09-02T03:10:18;21.80;46.50
49184;DHT22;35021;49.214;12.270;2022-09-02T03:12:45;21.80;46.50
49184;DHT22;35021;49.214;12.270;2022-09-02T03:15:15;21.80;46.50
49184;DHT22;35021;49.214;12.270;2022-09-02T03:17:43;21.80;46.50
49184;DHT22;35021;49.214;12.270;2022-09-02T03:20:11;21.80;46.40
49184;DHT22;35021;49.214;12.270;2022-09-02T03:22:38;21.80;46.40
49184;DHT22;35021;49.214;12.270;2022-09-02T03:25:07;21.80;46.40
49184;DHT22;35021;49.214;12.270;2022-09-02T03:27:37;21.80;46.30
49184;DHT22;35021;49.214;12.270;2022-09-02T03:30:07;21.80;46.30
49184;DHT22;35021;49.214;12.270;2022-09-02T03:32:34;21.80;46.30
49184;DHT22;35021;49.214;12.270;2022-09-02T03:35:05;21.80;46.20
49184;DHT22;35021;49.214;12.270;2022-09-02T03:37:34;21.80;46.10
49184;DHT22;35021;49.214;12.270;2022-09-02T03:40:06;21.80;46.00
49184;DHT22;35021;49.214;12.270;2022-09-02T03:42:33;21.80;45.90
49184;DHT22;35021;49.214;12.270;2022-09-02T03:45:00;21.80;45.90
49184;DHT22;35021;49.214;12.270;2022-09-02T03:47:27;21.80;45.80
49184;DHT22;35021;49.214;12.270;2022-09-02T03:49:55;21.80;45.90
49184;DHT22;35021;49.214;12.270;2022-09-02T03:52:23;21.80;45.80
49184;DHT22;35021;49.214;12.270;2022-09-02T03:54:50;21.80;45.70
49184;DHT22;35021;49.214;12.270;2022-09-02T03:57:17;21.80;45.70
49184;DHT22;35021;49.214;12.270;2022-09-02T03:59:46;21.80;45.70
49184;DHT22;35021;49.214;12.270;2022-09-02T04:02:13;21.80;45.60
49184;DHT22;35021;49.214;12.270;2022-09-02T04:04:40;21.80;45.60
49184;DHT22;35021;49.214;12.270;2022-09-02T04:07:07;21.80;45.50
49184;DHT22;35021;49.214;12.270;2022-09-02T04:09:34;21.80;45.50
49184;DHT22;35021;49.214;12.270;2022-09-02T04:12:03;21.80;45.50
49184;DHT22;35021;49.214;12.270;2022-09-02T04:14:30;21.80;45.50
49184;DHT22;35021;49.214;12.270;2022-09-02T04:16:57;21.80;45.50
49184;DHT22;35021;49.214;12.270;2022-09-02T04:19:24;21.80;45.50
49184;DHT22;35021;49.214;12.270;2022-09-02T04:21:51;21.80;45.40
49184;DHT22;35021;49.214;12.270;2022-09-02T04:24:18;21.80;45.40
49184;DHT22;35021;49.214;12.270;2022-09-02T04:26:45;21.70;45.40
49184;DHT22;35021;49.214;12.270;2022-09-02T04:29:12;21.70;45.30
49184;DHT22;35021;49.214;12.270;2022-09-02T04:31:39;21.70;45.40
49184;DHT22;35021;49.214;12.270;2022-09-02T04:34:06;21.80;45.40
49184;DHT22;35021;49.214;12.270;2022-09-02T04:36:33;21.70;45.30
49184;DHT22;35021;49.214;12.270;2022-09-02T04:39:00;21.70;45.30
49184;DHT22;35021;49.214;12.270;2022-09-02T04:41:29;21.70;45.30
49184;DHT22;35021;49.214;12.270;2022-09-02T04:43:58;21.70;45.30
49184;DHT22;35021;49.214;12.270;2022-09-02T04:46:25;21.60;45.10
49184;DHT22;35021;49.214;12.270;2022-09-02T04:49:02;21.60;45.10
49184;DHT22;35021;49.214;12.270;2022-09-02T04:51:29;21.60;45.10
49184;DHT22;35021;49.214;12.270;2022-09-02T04:53:56;21.60;45.10
49184;DHT22;35021;49.214;12.270;2022-09-02T04:56:26;21.60;45.10
49184;DHT22;35021;49.214;12.270;2022-09-02T04:58:54;21.60;45.20
49184;DHT22;35021;49.214;12.270;2022-09-02T05:01:24;21.60;45.20
49184;DHT22;35021;49.214;12.270;2022-09-02T05:03:52;21.60;45.20
49184;DHT22;35021;49.214;12.270;2022-09-02T05:06:22;21.60;45.20
49184;DHT22;35021;49.214;12.270;2022-09-02T05:08:53;21.60;45.20
49184;DHT22;35021;49.214;12.270;2022-09-02T05:11:23;21.60;45.20
49184;DHT22;35021;49.214;12.270;2022-09-02T05:13:55;21.60;45.20
49184;DHT22;35021;49.214;12.270;2022-09-02T05:16:25;21.60;45.20
49184;DHT22;35021;49.214;12.270;2022-09-02T05:18:53;21.60;45.20
49184;DHT22;35021;49.214;12.270;2022-09-02T05:21:21;21.60;45.20
49184;DHT22;35021;49.214;12.270;2022-09-02T05:23:51;21.60;45.20
49184;DHT22;35021;49.214;12.270;2022-09-02T05:26:20;21.60;45.30
49184;DHT22;35021;49.214;12.270;2022-09-02T05:28:48;21.60;45.30
49184;DHT22;35021;49.214;12.270;2022-09-02T05:31:18;21.60;45.30
49184;DHT22;35021;49.214;12.270;2022-09-02T05:33:45;21.60;45.30
49184;DHT22;35021;49.214;12.270;2022-09-02T05:36:15;21.60;45.40
49184;DHT22;35021;49.214;12.270;2022-09-02T05:38:43;21.60;45.40
49184;DHT22;35021;49.214;12.270;2022-09-02T05:41:14;21.60;45.50
49184;DHT22;35021;49.214;12.270;2022-09-02T05:43:42;21.60;45.50
49184;DHT22;35021;49.214;12.270;2022-09-02T05:46:15;21.60;45.50
49184;DHT22;35021;49.214;12.270;2022-09-02T05:48:47;21.60;45.60
49184;DHT22;35021;49.214;12.270;2022-09-02T05:51:38;21.60;45.70
49184;DHT22;35021;49.214;12.270;2022-09-02T05:54:09;21.60;45.70
49184;DHT22;35021;49.214;12.270;2022-09-02T05:56:38;21.60;45.90
49184;DHT22;35021;49.214;12.270;2022-09-02T05:59:10;21.60;46.00
49184;DHT22;35021;49.214;12.270;2022-09-02T06:01:37;21.60;46.20
49184;DHT22;35021;49.214;12.270;2022-09-02T06:04:05;21.60;46.30
49184;DHT22;35021;49.214;12.270;2022-09-02T06:06:34;21.60;46.40
49184;DHT22;35021;49.214;12.270;2022-09-02T06:09:08;21.60;46.60
49184;DHT22;35021;49.214;12.270;2022-09-02T06:11:37;21.60;46.80
49184;DHT22;35021;49.214;12.270;2022-09-02T06:14:06;21.60;47.00
49184;DHT22;35021;49.214;12.270;2022-09-02T06:16:34;21.60;47.20
49184;DHT22;35021;49.214;12.270;2022-09-02T06:19:02;21.50;47.30
49184;DHT22;35021;49.214;12.270;2022-09-02T06:21:32;21.50;47.50
49184;DHT22;35021;49.214;12.270;2022-09-02T06:23:59;21.50;47.70
49184;DHT22;35021;49.214;12.270;2022-09-02T06:26:26;21.50;47.80
49184;DHT22;35021;49.214;12.270;2022-09-02T06:28:53;21.50;48.00
49184;DHT22;35021;49.214;12.270;2022-09-02T06:31:21;21.50;48.10
49184;DHT22;35021;49.214;12.270;2022-09-02T06:33:52;21.50;48.20
49184;DHT22;35021;49.214;12.270;2022-09-02T06:36:20;21.50;48.30
49184;DHT22;35021;49.214;12.270;2022-09-02T06:38:55;21.50;48.50
49184;DHT22;35021;49.214;12.270;2022-09-02T06:41:29;21.50;48.60
49184;DHT22;35021;49.214;12.270;2022-09-02T06:43:59;21.50;48.70
49184;DHT22;35021;49.214;12.270;2022-09-02T06:46:32;21.50;48.70
49184;DHT22;35021;49.214;12.270;2022-09-02T06:49:02;21.40;48.80
49184;DHT22;35021;49.214;12.270;2022-09-02T06:51:35;21.40;49.00
49184;DHT22;35021;49.214;12.270;2022-09-02T06:54:04;21.40;49.20
49184;DHT22;35021;49.214;12.270;2022-09-02T06:56:32;21.40;49.10
49184;DHT22;35021;49.214;12.270;2022-09-02T06:59:00;21.40;49.20
49184;DHT22;35021;49.214;12.270;2022-09-02T07:01:30;21.40;49.30
49184;DHT22;35021;49.214;12.270;2022-09-02T07:03:58;21.40;49.40
49184;DHT22;35021;49.214;12.270;2022-09-02T07:06:46;21.40;49.50
49184;DHT22;35021;49.214;12.270;2022-09-02T07:09:19;21.40;49.60
49184;DHT22;35021;49.214;12.270;2022-09-02T07:11:49;21.40;49.60
49184;DHT22;35021;49.214;12.270;2022-09-02T07:14:18;21.40;49.60
49184;DHT22;35021;49.214;12.270;2022-09-02T07:16:48;21.40;49.60
49184;DHT22;35021;49.214;12.270;2022-09-02T07:19:17;21.40;49.70
49184;DHT22;35021;49.214;12.270;2022-09-02T07:21:47;21.50;49.70
49184;DHT22;35021;49.214;12.270;2022-09-02T07:24:15;21.50;49.70
49184;DHT22;35021;49.214;12.270;2022-09-02T07:26:42;21.50;49.80
49184;DHT22;35021;49.214;12.270;2022-09-02T07:29:09;21.50;49.80
49184;DHT22;35021;49.214;12.270;2022-09-02T07:31:38;21.50;49.80
49184;DHT22;35021;49.214;12.270;2022-09-02T07:34:05;21.50;49.80
49184;DHT22;35021;49.214;12.270;2022-09-02T07:36:33;21.50;49.70
49184;DHT22;35021;49.214;12.270;2022-09-02T07:39:06;21.50;49.70
49184;DHT22;35021;49.214;12.270;2022-09-02T07:41:34;21.50;49.70
49184;DHT22;35021;49.214;12.270;2022-09-02T07:44:03;21.50;49.60
49184;DHT22;35021;49.214;12.270;2022-09-02T07:46:30;21.50;49.70
49184;DHT22;35021;49.214;12.270;2022-09-02T07:48:59;21.50;50.40
49184;DHT22;35021;49.214;12.270;2022-09-02T07:51:26;21.50;49.70
49184;DHT22;35021;49.214;12.270;2022-09-02T07:53:57;21.50;49.70
49184;DHT22;35021;49.214;12.270;2022-09-02T07:56:24;21.50;49.70
49184;DHT22;35021;49.214;12.270;2022-09-02T07:58:51;21.60;49.70
49184;DHT22;35021;49.214;12.270;2022-09-02T08:01:18;21.60;49.70
49184;DHT22;35021;49.214;12.270;2022-09-02T08:03:49;21.60;49.70
49184;DHT22;35021;49.214;12.270;2022-09-02T08:06:16;21.60;49.80
49184;DHT22;35021;49.214;12.270;2022-09-02T08:08:54;21.60;49.80
49184;DHT22;35021;49.214;12.270;2022-09-02T08:11:22;21.60;49.80
49184;DHT22;35021;49.214;12.270;2022-09-02T08:13:49;21.60;49.80
49184;DHT22;35021;49.214;12.270;2022-09-02T08:16:16;21.60;49.80
49184;DHT22;35021;49.214;12.270;2022-09-02T08:18:44;21.60;49.90
49184;DHT22;35021;49.214;12.270;2022-09-02T08:21:11;21.60;49.80
49184;DHT22;35021;49.214;12.270;2022-09-02T08:23:40;21.70;49.90
49184;DHT22;35021;49.214;12.270;2022-09-02T08:26:07;21.60;49.90
49184;DHT22;35021;49.214;12.270;2022-09-02T08:28:36;21.70;50.10
49184;DHT22;35021;49.214;12.270;2022-09-02T08:31:05;21.70;50.00
49184;DHT22;35021;49.214;12.270;2022-09-02T08:33:34;21.70;49.90
49184;DHT22;35021;49.214;12.270;2022-09-02T08:36:11;21.70;50.00
49184;DHT22;35021;49.214;12.270;2022-09-02T08:38:41;21.60;49.70
49184;DHT22;35021;49.214;12.270;2022-09-02T08:41:26;21.60;49.80
49184;DHT22;35021;49.214;12.270;2022-09-02T08:43:56;21.70;49.70
49184;DHT22;35021;49.214;12.270;2022-09-02T08:46:25;21.60;49.70
49184;DHT22;35021;49.214;12.270;2022-09-02T08:49:03;21.70;49.70
49184;DHT22;35021;49.214;12.270;2022-09-02T08:51:55;21.70;49.80
49184;DHT22;35021;49.214;12.270;2022-09-02T08:54:50;21.70;49.90
49184;DHT22;35021;49.214;12.270;2022-09-02T08:57:21;21.70;49.70
49184;DHT22;35021;49.214;12.270;2022-09-02T09:00:00;21.70;49.60
49184;DHT22;35021;49.214;12.270;2022-09-02T09:02:53;21.70;50.30
49184;DHT22;35021;49.214;12.270;2022-09-02T09:16:37;21.70;49.70
49184;DHT22;35021;49.214;12.270;2022-09-02T09:19:54;21.70;49.60
49184;DHT22;35021;49.214;12.270;2022-09-02T09:22:32;21.70;49.40
49184;DHT22;35021;49.214;12.270;2022-09-02T09:25:02;21.70;49.30
49184;DHT22;35021;49.214;12.270;2022-09-02T09:27:40;21.70;49.30
49184;DHT22;35021;49.214;12.270;2022-09-02T09:30:08;21.70;49.40
49184;DHT22;35021;49.214;12.270;2022-09-02T09:32:46;21.70;49.30
49184;DHT22;35021;49.214;12.270;2022-09-02T09:35:16;21.70;49.30
49184;DHT22;35021;49.214;12.270;2022-09-02T09:37:47;21.70;49.20
49184;DHT22;35021;49.214;12.270;2022-09-02T09:45:50;21.70;49.20
49184;DHT22;35021;49.214;12.270;2022-09-02T09:48:25;21.80;48.90
49184;DHT22;35021;49.214;12.270;2022-09-02T09:53:30;21.70;48.20
49184;DHT22;35021;49.214;12.270;2022-09-02T10:01:12;21.80;47.40
49184;DHT22;35021;49.214;12.270;2022-09-02T10:03:46;21.70;47.50
49184;DHT22;35021;49.214;12.270;2022-09-02T10:08:55;21.70;47.70
49184;DHT22;35021;49.214;12.270;2022-09-02T10:11:25;21.70;47.50
49184;DHT22;35021;49.214;12.270;2022-09-02T10:16:41;21.70;48.20
49184;DHT22;35021;49.214;12.270;2022-09-02T10:24:39;21.70;47.10
49184;DHT22;35021;49.214;12.270;2022-09-02T10:27:19;21.70;47.50
49184;DHT22;35021;49.214;12.270;2022-09-02T10:30:02;21.80;47.60
49184;DHT22;35021;49.214;12.270;2022-09-02T10:32:39;21.80;47.80
49184;DHT22;35021;49.214;12.270;2022-09-02T10:40:43;21.80;48.10
49184;DHT22;35021;49.214;12.270;2022-09-02T10:46:17;21.80;47.90
49184;DHT22;35021;49.214;12.270;2022-09-02T10:57:28;21.80;47.70
49184;DHT22;35021;49.214;12.270;2022-09-02T11:00:04;21.80;47.80
49184;DHT22;35021;49.214;12.270;2022-09-02T11:02:43;21.80;47.80
49184;DHT22;35021;49.214;12.270;2022-09-02T11:05:17;21.80;47.80
49184;DHT22;35021;49.214;12.270;2022-09-02T11:07:56;21.90;47.90
49184;DHT22;35021;49.214;12.270;2022-09-02T11:10:40;21.90;47.60
49184;DHT22;35021;49.214;12.270;2022-09-02T11:13:23;21.80;47.40
49184;DHT22;35021;49.214;12.270;2022-09-02T11:16:04;21.90;47.20
49184;DHT22;35021;49.214;12.270;2022-09-02T11:24:13;21.80;47.20
49184;DHT22;35021;49.214;12.270;2022-09-02T11:26:45;21.90;47.20
49184;DHT22;35021;49.214;12.270;2022-09-02T11:29:24;21.90;47.20
49184;DHT22;35021;49.214;12.270;2022-09-02T11:32:16;21.90;47.30
49184;DHT22;35021;49.214;12.270;2022-09-02T11:34:50;21.90;47.40
49184;DHT22;35021;49.214;12.270;2022-09-02T11:37:34;21.90;47.40
49184;DHT22;35021;49.214;12.270;2022-09-02T11:40:06;21.90;47.40
49184;DHT22;35021;49.214;12.270;2022-09-02T11:43:13;21.90;47.30
49184;DHT22;35021;49.214;12.270;2022-09-02T11:54:12;21.90;47.00
49184;DHT22;35021;49.214;12.270;2022-09-02T11:56:51;21.90;47.10
49184;DHT22;35021;49.214;12.270;2022-09-02T12:02:49;21.90;46.80
49184;DHT22;35021;49.214;12.270;2022-09-02T12:11:00;21.90;47.10
49184;DHT22;35021;49.214;12.270;2022-09-02T12:13:39;21.90;47.20
49184;DHT22;35021;49.214;12.270;2022-09-02T12:22:23;22.00;47.30
49184;DHT22;35021;49.214;12.270;2022-09-02T12:24:56;22.00;47.30
49184;DHT22;35021;49.214;12.270;2022-09-02T12:27:29;22.00;47.10
49184;DHT22;35021;49.214;12.270;2022-09-02T12:30:09;22.00;46.90
49184;DHT22;35021;49.214;12.270;2022-09-02T12:35:58;22.00;46.50
49184;DHT22;35021;49.214;12.270;2022-09-02T12:38:38;22.00;46.40
49184;DHT22;35021;49.214;12.270;2022-09-02T12:41:23;22.00;46.20
49184;DHT22;35021;49.214;12.270;2022-09-02T12:44:26;22.00;46.20
49184;DHT22;35021;49.214;12.270;2022-09-02T12:52:51;22.00;46.40
49184;DHT22;35021;49.214;12.270;2022-09-02T12:58:38;22.10;46.20
49184;DHT22;35021;49.214;12.270;2022-09-02T13:01:43;22.10;46.20
49184;DHT22;35021;49.214;12.270;2022-09-02T13:16:09;22.20;46.00
49184;DHT22;35021;49.214;12.270;2022-09-02T13:30:17;22.10;47.30
49184;DHT22;35021;49.214;12.270;2022-09-02T13:32:55;22.10;46.50
49184;DHT22;35021;49.214;12.270;2022-09-02T13:35:26;22.10;46.30
49184;DHT22;35021;49.214;12.270;2022-09-02T13:37:56;22.10;46.30
49184;DHT22;35021;49.214;12.270;2022-09-02T13:40:28;22.20;46.50
49184;DHT22;35021;49.214;12.270;2022-09-02T13:42:57;22.20;46.00
49184;DHT22;35021;49.214;12.270;2022-09-02T13:45:34;22.20;45.90
49184;DHT22;35021;49.214;12.270;2022-09-02T13:48:25;22.20;45.90
49184;DHT22;35021;49.214;12.270;2022-09-02T13:50:54;22.20;45.90
49184;DHT22;35021;49.214;12.270;2022-09-02T13:53:36;22.20;45.90
49184;DHT22;35021;49.214;12.270;2022-09-02T13:56:25;22.20;45.80
49184;DHT22;35021;49.214;12.270;2022-09-02T13:58:54;22.30;45.90
49184;DHT22;35021;49.214;12.270;2022-09-02T14:01:35;22.30;45.70
49184;DHT22;35021;49.214;12.270;2022-09-02T14:04:26;22.30;45.90
49184;DHT22;35021;49.214;12.270;2022-09-02T14:06:56;22.30;45.60
49184;DHT22;35021;49.214;12.270;2022-09-02T14:09:48;22.30;45.40
49184;DHT22;35021;49.214;12.270;2022-09-02T14:12:17;22.40;45.30
49184;DHT22;35021;49.214;12.270;2022-09-02T14:14:45;22.40;45.30
49184;DHT22;35021;49.214;12.270;2022-09-02T14:17:24;22.30;45.40
49184;DHT22;35021;49.214;12.270;2022-09-02T14:20:13;22.40;45.50
49184;DHT22;35021;49.214;12.270;2022-09-02T14:23:00;22.40;45.90
49184;DHT22;35021;49.214;12.270;2022-09-02T14:25:36;22.40;45.40
49184;DHT22;35021;49.214;12.270;2022-09-02T14:28:18;22.40;45.20
49184;DHT22;35021;49.214;12.270;2022-09-02T14:30:58;22.40;44.70
49184;DHT22;35021;49.214;12.270;2022-09-02T14:33:42;22.40;44.50
49184;DHT22;35021;49.214;12.270;2022-09-02T14:43:59;22.40;44.40
49184;DHT22;35021;49.214;12.270;2022-09-02T14:46:32;22.40;44.60
49184;DHT22;35021;49.214;12.270;2022-09-02T14:49:07;22.40;44.70
49184;DHT22;35021;49.214;12.270;2022-09-02T14:51:52;22.50;44.70
49184;DHT22;35021;49.214;12.270;2022-09-02T14:54:55;22.50;44.40
49184;DHT22;35021;49.214;12.270;2022-09-02T14:57:25;22.50;44.40
49184;DHT22;35021;49.214;12.270;2022-09-02T15:00:01;22.50;44.30
49184;DHT22;35021;49.214;12.270;2022-09-02T15:02:32;22.50;44.30
49184;DHT22;35021;49.214;12.270;2022-09-02T15:05:04;22.50;44.30
49184;DHT22;35021;49.214;12.270;2022-09-02T15:07:32;22.50;44.40
49184;DHT22;35021;49.214;12.270;2022-09-02T15:09:59;22.50;44.40
49184;DHT22;35021;49.214;12.270;2022-09-02T15:12:31;22.50;44.30
49184;DHT22;35021;49.214;12.270;2022-09-02T15:14:59;22.50;44.40
49184;DHT22;35021;49.214;12.270;2022-09-02T15:17:26;22.60;44.50
49184;DHT22;35021;49.214;12.270;2022-09-02T15:19:55;22.60;44.50
49184;DHT22;35021;49.214;12.270;2022-09-02T15:22:22;22.60;44.30
49184;DHT22;35021;49.214;12.270;2022-09-02T15:24:50;22.60;44.30
49184;DHT22;35021;49.214;12.270;2022-09-02T15:27:17;22.60;44.30
49184;DHT22;35021;49.214;12.270;2022-09-02T15:29:48;22.60;44.20
49184;DHT22;35021;49.214;12.270;2022-09-02T15:32:15;22.60;44.10
49184;DHT22;35021;49.214;12.270;2022-09-02T15:34:41;22.60;44.10
49184;DHT22;35021;49.214;12.270;2022-09-02T15:37:08;22.60;44.00
49184;DHT22;35021;49.214;12.270;2022-09-02T15:39:38;22.60;43.90
49184;DHT22;35021;49.214;12.270;2022-09-02T15:42:06;22.60;43.90
49184;DHT22;35021;49.214;12.270;2022-09-02T15:44:33;22.50;43.90
49184;DHT22;35021;49.214;12.270;2022-09-02T15:47:00;22.60;44.10
49184;DHT22;35021;49.214;12.270;2022-09-02T15:49:28;22.60;44.20
49184;DHT22;35021;49.214;12.270;2022-09-02T15:51:57;22.50;44.10
49184;DHT22;35021;49.214;12.270;2022-09-02T15:54:24;22.50;44.00
49184;DHT22;35021;49.214;12.270;2022-09-02T15:57:00;22.50;43.80
49184;DHT22;35021;49.214;12.270;2022-09-02T15:59:28;22.50;43.70
49184;DHT22;35021;49.214;12.270;2022-09-02T16:01:55;22.50;43.70
49184;DHT22;35021;49.214;12.270;2022-09-02T16:04:24;22.50;43.60
49184;DHT22;35021;49.214;12.270;2022-09-02T16:06:55;22.50;43.70
49184;DHT22;35021;49.214;12.270;2022-09-02T16:09:22;22.50;43.80
49184;DHT22;35021;49.214;12.270;2022-09-02T16:11:52;22.50;43.90
49184;DHT22;35021;49.214;12.270;2022-09-02T16:14:20;22.50;43.90
49184;DHT22;35021;49.214;12.270;2022-09-02T16:16:49;22.50;43.90
49184;DHT22;35021;49.214;12.270;2022-09-02T16:19:22;22.40;43.70
49184;DHT22;35021;49.214;12.270;2022-09-02T16:21:50;22.40;43.60
49184;DHT22;35021;49.214;12.270;2022-09-02T16:24:17;22.40;43.60
49184;DHT22;35021;49.214;12.270;2022-09-02T16:26:47;22.40;43.70
49184;DHT22;35021;49.214;12.270;2022-09-02T16:29:15;22.50;43.80
49184;DHT22;35021;49.214;12.270;2022-09-02T16:31:45;22.50;44.00
49184;DHT22;35021;49.214;12.270;2022-09-02T16:34:32;22.50;43.90
49184;DHT22;35021;49.214;12.270;2022-09-02T16:36:59;22.50;44.00
49184;DHT22;35021;49.214;12.270;2022-09-02T16:39:26;22.40;43.90
49184;DHT22;35021;49.214;12.270;2022-09-02T16:41:53;22.50;44.00
49184;DHT22;35021;49.214;12.270;2022-09-02T16:44:21;22.50;43.90
49184;DHT22;35021;49.214;12.270;2022-09-02T16:46:49;22.50;43.90
49184;DHT22;35021;49.214;12.270;2022-09-02T16:49:18;22.50;43.80
49184;DHT22;35021;49.214;12.270;2022-09-02T16:51:47;22.50;43.90
49184;DHT22;35021;49.214;12.270;2022-09-02T16:54:15;22.50;43.80
49184;DHT22;35021;49.214;12.270;2022-09-02T16:56:47;22.50;43.80
49184;DHT22;35021;49.214;12.270;2022-09-02T16:59:14;22.60;43.80
49184;DHT22;35021;49.214;12.270;2022-09-02T17:01:41;22.60;43.70
49184;DHT22;35021;49.214;12.270;2022-09-02T17:04:08;22.60;43.60
49184;DHT22;35021;49.214;12.270;2022-09-02T17:06:35;22.50;43.50
49184;DHT22;35021;49.214;12.270;2022-09-02T17:09:08;22.50;43.50
49184;DHT22;35021;49.214;12.270;2022-09-02T17:11:36;22.50;43.40
49184;DHT22;35021;49.214;12.270;2022-09-02T17:14:07;22.50;43.40
49184;DHT22;35021;49.214;12.270;2022-09-02T17:16:40;22.50;43.40
49184;DHT22;35021;49.214;12.270;2022-09-02T17:19:09;22.50;43.50
49184;DHT22;35021;49.214;12.270;2022-09-02T17:21:57;22.60;43.70
49184;DHT22;35021;49.214;12.270;2022-09-02T17:24:25;22.50;43.60
49184;DHT22;35021;49.214;12.270;2022-09-02T17:26:57;22.60;43.60
49184;DHT22;35021;49.214;12.270;2022-09-02T17:29:25;22.60;43.70
49184;DHT22;35021;49.214;12.270;2022-09-02T17:32:15;22.50;43.60
49184;DHT22;35021;49.214;12.270;2022-09-02T17:34:43;22.50;43.70
49184;DHT22;35021;49.214;12.270;2022-09-02T17:37:09;22.50;43.80
49184;DHT22;35021;49.214;12.270;2022-09-02T17:39:37;22.40;43.90
49184;DHT22;35021;49.214;12.270;2022-09-02T17:42:04;22.40;44.80
49184;DHT22;35021;49.214;12.270;2022-09-02T17:44:36;22.30;44.10
49184;DHT22;35021;49.214;12.270;2022-09-02T17:47:11;22.30;44.20
49184;DHT22;35021;49.214;12.270;2022-09-02T17:49:39;22.30;44.20